Time;durP1;ratioP1;P1;durP2;ratioP2;P2;SDS_P1;SDS_P2;PMS_P1;PMS_P2;Temp;Humidity;BMP_temperature;BMP_pressure;BME280_temperature;BME280_humidity;BME280_pressure;Samples;Min_cycle;Max_cycle;Signal;HPM_P1;HPM_P2
2022/10/16 00:00:17;;;;;;;5.00;4.50;;;;;;;13.72;100.00;100293.69;5043712;28;20529;-76
2022/10/16 00:02:42;;;;;;;6.75;4.50;;;;;;;13.61;100.00;100293.09;5042292;28;20045;-76
2022/10/16 00:05:07;;;;;;;5.82;4.75;;;;;;;13.62;100.00;100297.47;5042820;28;20063;-76
2022/10/16 00:07:33;;;;;;;5.45;4.40;;;;;;;13.62;100.00;100295.69;5041327;28;20107;-75
2022/10/16 00:09:58;;;;;;;5.93;4.65;;;;;;;13.66;100.00;100293.84;5041642;28;20041;-75
2022/10/16 00:12:23;;;;;;;5.20;4.38;;;;;;;13.65;100.00;100294.75;5042339;28;20033;-76
2022/10/16 00:14:49;;;;;;;6.40;4.53;;;;;;;13.66;100.00;100293.84;5044168;28;20136;-75
2022/10/16 00:17:14;;;;;;;7.65;4.53;;;;;;;13.68;100.00;100298.22;5043097;28;20065;-76
2022/10/16 00:19:39;;;;;;;4.45;4.05;;;;;;;13.70;100.00;100298.16;5036082;28;20076;-76
2022/10/16 00:22:05;;;;;;;4.38;3.97;;;;;;;13.71;100.00;100303.44;5041169;28;20068;-76
2022/10/16 00:24:30;;;;;;;4.35;3.95;;;;;;;13.74;100.00;100305.16;5042222;28;20071;-75
2022/10/16 00:26:55;;;;;;;5.00;4.38;;;;;;;13.79;100.00;100311.22;5041896;28;20033;-76
2022/10/16 00:29:20;;;;;;;4.78;4.10;;;;;;;13.79;100.00;100306.78;5040791;28;20063;-76
2022/10/16 00:31:46;;;;;;;4.82;4.40;;;;;;;13.86;100.00;100311.94;5043388;28;20041;-76
2022/10/16 00:34:11;;;;;;;4.82;4.32;;;;;;;13.88;100.00;100308.34;5043182;28;20040;-76
2022/10/16 00:36:36;;;;;;;4.53;4.10;;;;;;;13.89;100.00;100315.41;5040207;28;20092;-76
2022/10/16 00:39:02;;;;;;;5.10;4.50;;;;;;;13.88;100.00;100316.31;5042265;28;20049;-76
2022/10/16 00:41:29;;;;;;;5.32;4.20;;;;;;;13.85;100.00;100313.72;5041476;28;20048;-76
2022/10/16 00:43:59;;;;;;;7.82;4.43;;;;;;;13.83;100.00;100312.88;5040673;28;20037;-76
2022/10/16 00:46:34;;;;;;;4.97;4.57;;;;;;;13.79;100.00;100319.19;5054890;28;20043;-76
2022/10/16 00:49:01;;;;;;;5.32;4.60;;;;;;;13.76;100.00;100308.66;5041334;28;20036;-76
2022/10/16 00:51:34;;;;;;;5.13;4.55;;;;;;;13.82;100.00;100303.19;5042491;28;20068;-75
2022/10/16 00:53:59;;;;;;;;;;;;;;;13.71;100.00;100302.56;5040361;28;20045;-76
2022/10/16 00:56:25;;;;;;;4.55;4.15;;;;;;;13.77;100.00;100310.38;5042038;28;19916;-76
2022/10/16 00:58:50;;;;;;;5.10;3.95;;;;;;;13.64;100.00;100308.91;5041206;28;20045;-76
2022/10/16 01:01:15;;;;;;;6.05;4.68;;;;;;;13.55;100.00;100310.00;5040414;28;20037;-76
2022/10/16 01:03:41;;;;;;;4.57;4.18;;;;;;;13.50;100.00;100312.75;5043844;28;20037;-76
2022/10/16 01:06:21;;;;;;;6.63;5.07;;;;;;;13.48;100.00;100319.00;5049776;28;20041;-76
2022/10/16 01:09:01;;;;;;;5.35;4.85;;;;;;;13.53;100.00;100317.97;5041429;28;20047;-76
2022/10/16 01:11:41;;;;;;;4.63;4.22;;;;;;;13.59;100.00;100314.31;5055671;28;20033;-76
2022/10/16 01:14:30;;;;;;;4.80;3.97;;;;;;;13.69;100.00;100317.66;5039614;28;20033;-76
2022/10/16 01:17:02;;;;;;;4.90;4.43;;;;;;;13.83;100.00;100326.16;5039412;28;20041;-76
2022/10/16 01:19:58;;;;;;;4.88;4.40;;;;;;;14.05;100.00;100323.88;5040368;28;20076;-75
2022/10/16 01:22:31;;;;;;;4.30;3.90;;;;;;;14.23;100.00;100320.78;5041421;28;20112;-75
2022/10/16 01:25:04;;;;;;;4.38;3.97;;;;;;;14.39;100.00;100331.91;5039383;28;20049;-76
2022/10/16 01:27:34;;;;;;;4.70;4.00;;;;;;;14.58;100.00;100327.03;5040099;28;20033;-76
2022/10/16 01:30:09;;;;;;;4.90;3.45;;;;;;;14.73;100.00;100328.41;5038866;28;20392;-76
2022/10/16 01:32:45;;;;;;;6.38;3.70;;;;;;;14.88;100.00;100337.72;5043958;28;20033;-76
2022/10/16 01:35:32;;;;;;;3.38;3.08;;;;;;;14.99;100.00;100332.16;5042649;28;20037;-76
2022/10/16 01:38:19;;;;;;;3.30;3.00;;;;;;;15.16;100.00;100331.69;5044090;28;20112;-76
2022/10/16 01:40:51;;;;;;;6.53;3.10;;;;;;;15.38;100.00;100319.53;5044995;28;20038;-76
2022/10/16 01:43:30;;;;;;;5.35;3.88;;;;;;;15.46;100.00;100319.28;5041773;28;20033;-76
2022/10/16 01:45:57;;;;;;;3.28;2.92;;;;;;;15.56;100.00;100318.06;5044503;28;20076;-76
2022/10/16 01:48:23;;;;;;;3.35;3.05;;;;;;;15.72;100.00;100318.53;5043626;28;20072;-76
2022/10/16 01:50:57;;;;;;;3.30;3.00;;;;;;;15.74;100.00;100317.56;5046085;28;20140;-76
2022/10/16 01:53:24;;;;;;;5.60;3.10;;;;;;;15.88;100.00;100318.94;5044320;28;20504;-76
2022/10/16 01:55:54;;;;;;;4.07;3.03;;;;;;;15.93;100.00;100319.66;5043760;28;20071;-76
2022/10/16 01:58:21;;;;;;;3.13;2.83;;;;;;;16.03;100.00;100310.44;5045962;28;20120;-76
2022/10/16 02:00:47;;;;;;;3.22;2.80;;;;;;;16.09;100.00;100318.25;5042706;28;20082;-76
2022/10/16 02:03:16;;;;;;;3.60;2.88;;;;;;;16.17;100.00;100329.53;5044846;28;20029;-75
2022/10/16 02:05:46;;;;;;;3.15;2.70;;;;;;;16.23;100.00;100331.09;5044111;28;20044;-75
2022/10/16 02:08:11;;;;;;;4.90;2.88;;;;;;;16.27;100.00;100326.53;5043317;28;20033;-76
2022/10/16 02:10:37;;;;;;;3.35;3.05;;;;;;;16.35;100.00;100327.19;5045637;28;20120;-76
2022/10/16 02:13:13;;;;;;;3.40;2.97;;;;;;;16.32;100.00;100329.94;5038602;28;20400;-76
2022/10/16 02:15:38;;;;;;;2.97;2.67;;;;;;;16.28;100.00;100326.50;5044921;28;20089;-76
2022/10/16 02:18:06;;;;;;;2.85;2.60;;;;;;;16.26;100.00;100324.81;5045894;28;20037;-76
2022/10/16 02:21:13;;;;;;;5.45;3.03;;;;;;;16.26;100.00;100320.34;5042589;28;20026;-76
2022/10/16 02:23:55;;;;;;;4.20;3.17;;;;;;;16.26;100.00;100325.69;5044629;28;20476;-76
2022/10/16 02:26:31;;;;;;;2.83;2.50;;;;;;;16.26;100.00;100324.81;5043511;28;20041;-76
2022/10/16 02:29:04;;;;;;;6.05;3.70;;;;;;;16.24;100.00;100338.16;5042098;28;20477;-76
2022/10/16 02:31:34;;;;;;;3.58;3.00;;;;;;;16.28;100.00;100339.81;5043887;28;20087;-75
2022/10/16 02:34:04;;;;;;;3.45;2.92;;;;;;;16.26;100.00;100340.78;5045820;28;20021;-76
2022/10/16 02:36:31;;;;;;;3.20;2.78;;;;;;;16.30;100.00;100337.97;5041905;28;20044;-76
2022/10/16 02:39:01;;;;;;;3.08;2.83;;;;;;;16.31;100.00;100344.16;5044438;28;20475;-76
2022/10/16 02:41:27;;;;;;;3.60;3.30;;;;;;;16.30;100.00;100345.09;5043772;28;20045;-76
2022/10/16 02:43:52;;;;;;;3.25;2.92;;;;;;;16.31;99.97;100338.84;5042442;28;20033;-76
2022/10/16 02:46:18;;;;;;;3.55;3.05;;;;;;;16.26;100.00;100338.13;5044785;28;20036;-75
2022/10/16 02:48:44;;;;;;;3.70;2.60;;;;;;;16.23;100.00;100335.56;5045194;28;20033;-75
2022/10/16 02:51:09;;;;;;;2.90;2.70;;;;;;;16.26;100.00;100335.47;5054575;28;20036;-75
2022/10/16 02:53:34;;;;;;;3.35;3.05;;;;;;;16.27;100.00;100334.53;5042757;28;20037;-76
2022/10/16 02:56:00;;;;;;;3.17;2.78;;;;;;;16.27;100.00;100345.19;5041333;28;20052;-76
2022/10/16 02:58:25;;;;;;;3.03;2.72;;;;;;;16.25;100.00;100347.91;5045358;28;20090;-76
2022/10/16 03:00:50;;;;;;;2.72;2.53;;;;;;;16.29;100.00;100349.53;5041961;28;20025;-76
2022/10/16 03:03:15;;;;;;;3.35;3.00;;;;;;;16.32;100.00;100351.22;5047419;28;20029;-76
2022/10/16 03:05:43;;;;;;;5.95;3.10;;;;;;;16.41;99.77;100343.81;5041351;28;20415;-76
2022/10/16 03:08:08;;;;;;;3.22;2.92;;;;;;;16.39;99.52;100347.44;5043724;28;20082;-76
2022/10/16 03:10:34;;;;;;;5.07;2.80;;;;;;;16.39;99.79;100348.31;5043562;28;20045;-76
2022/10/16 03:12:59;;;;;;;3.55;2.80;;;;;;;16.35;99.37;100346.69;5042423;28;20087;-76
2022/10/16 03:15:25;;;;;;;5.75;2.50;;;;;;;16.36;98.72;100339.56;5043833;28;20041;-76
2022/10/16 03:17:51;;;;;;;3.15;2.90;;;;;;;16.27;98.92;100343.41;5041025;28;20037;-76
2022/10/16 03:20:16;;;;;;;4.00;2.95;;;;;;;16.09;100.00;100365.31;5044062;28;20033;-75
2022/10/16 03:22:42;;;;;;;3.35;2.58;;;;;;;15.98;100.00;100363.84;5041925;28;20037;-76
2022/10/16 03:25:07;;;;;;;2.95;2.75;;;;;;;15.93;100.00;100370.25;5041457;28;20434;-76
2022/10/16 03:27:33;;;;;;;3.72;2.75;;;;;;;15.93;100.00;100359.59;5041017;28;20476;-75
2022/10/16 03:29:58;;;;;;;3.42;3.13;;;;;;;15.80;100.00;100368.84;5046216;28;20047;-76
2022/10/16 03:32:24;;;;;;;3.22;2.92;;;;;;;15.71;100.00;100376.19;5059760;28;20045;-76
2022/10/16 03:34:50;;;;;;;3.13;2.67;;;;;;;15.62;100.00;100370.25;5040817;28;20120;-76
2022/10/16 03:37:15;;;;;;;3.38;2.85;;;;;;;15.54;100.00;100379.31;5043282;28;20128;-76
2022/10/16 03:39:41;;;;;;;2.97;2.78;;;;;;;15.49;100.00;100380.38;5042422;28;20064;-76
2022/10/16 03:42:06;;;;;;;3.38;3.08;;;;;;;15.43;100.00;100392.06;5042246;28;20029;-76
2022/10/16 03:44:31;;;;;;;3.55;3.25;;;;;;;15.38;100.00;100385.09;5043156;28;20411;-75
2022/10/16 03:46:57;;;;;;;3.35;3.05;;;;;;;15.42;100.00;100389.44;5040818;28;20037;-75
2022/10/16 03:49:22;;;;;;;4.57;3.13;;;;;;;15.38;100.00;100382.44;5044353;28;20040;-76
2022/10/16 03:51:47;;;;;;;3.10;2.80;;;;;;;15.34;100.00;100379.88;5036088;28;20037;-75
2022/10/16 03:54:13;;;;;;;4.10;3.13;;;;;;;15.27;100.00;100388.97;5041181;28;20040;-75
2022/10/16 03:56:38;;;;;;;4.38;3.30;;;;;;;15.23;100.00;100402.38;5042033;28;20530;-76
2022/10/16 03:59:03;;;;;;;3.50;3.20;;;;;;;15.22;100.00;100398.84;5042438;28;20033;-76
2022/10/16 04:01:29;;;;;;;3.08;2.83;;;;;;;15.18;100.00;100391.88;5041093;28;20017;-76
2022/10/16 04:03:54;;;;;;;3.83;2.60;;;;;;;15.12;100.00;100392.03;5039688;28;20040;-76
2022/10/16 04:06:19;;;;;;;3.88;3.03;;;;;;;15.11;100.00;100392.94;5043479;28;20037;-75
2022/10/16 04:08:45;;;;;;;5.20;2.90;;;;;;;15.03;100.00;100411.75;5040893;28;20037;-76
2022/10/16 04:11:10;;;;;;;3.35;3.05;;;;;;;14.95;100.00;100410.22;5046488;28;20052;-76
2022/10/16 04:13:36;;;;;;;5.63;2.90;;;;;;;14.87;100.00;100416.59;5042004;28;20415;-75
2022/10/16 04:16:01;;;;;;;3.72;3.42;;;;;;;14.89;100.00;100422.75;5042254;28;20499;-76
2022/10/16 04:18:27;;;;;;;3.45;2.95;;;;;;;14.88;100.00;100423.66;5040905;28;20508;-76
2022/10/16 04:20:53;;;;;;;3.33;2.90;;;;;;;14.89;100.00;100428.06;5043505;28;20025;-75
2022/10/16 04:23:18;;;;;;;3.30;3.00;;;;;;;14.79;100.00;100413.25;5040666;28;20099;-75
2022/10/16 04:25:43;;;;;;;3.90;3.50;;;;;;;14.79;100.00;100421.22;5042371;28;20119;-76
2022/10/16 04:28:08;;;;;;;3.67;3.38;;;;;;;14.77;100.00;100412.41;5041537;28;20041;-76
2022/10/16 04:30:34;;;;;;;3.50;3.20;;;;;;;14.75;100.00;100410.72;5041554;28;20048;-75
2022/10/16 04:32:59;;;;;;;3.60;3.30;;;;;;;14.68;100.00;100413.53;5044213;28;20040;-76
2022/10/16 04:35:24;;;;;;;3.78;2.92;;;;;;;14.67;100.00;100417.09;5039904;28;20128;-76
2022/10/16 04:37:50;;;;;;;3.75;3.45;;;;;;;14.64;100.00;100414.50;5043638;28;20125;-75
2022/10/16 04:40:16;;;;;;;3.60;3.30;;;;;;;14.60;100.00;100414.63;5035836;28;20061;-76
2022/10/16 04:42:41;;;;;;;3.45;3.15;;;;;;;14.57;100.00;100428.00;5041039;28;20697;-76
2022/10/16 04:45:07;;;;;;;5.07;3.58;;;;;;;14.55;100.00;100432.47;5041579;28;20410;-76
2022/10/16 04:47:33;;;;;;;3.28;2.97;;;;;;;14.55;100.00;100435.13;5041086;28;20514;-76
2022/10/16 04:50:02;;;;;;;3.85;3.45;;;;;;;14.57;100.00;100436.81;5040251;28;20057;-75
2022/10/16 04:52:27;;;;;;;4.78;3.78;;;;;;;14.67;100.00;100416.22;5040222;28;20095;-76
2022/10/16 04:54:53;;;;;;;6.63;3.50;;;;;;;14.71;100.00;100417.03;5042031;28;20437;-75
2022/10/16 04:57:19;;;;;;;4.47;3.38;;;;;;;14.71;100.00;100412.56;5053181;28;20044;-76
2022/10/16 04:59:44;;;;;;;4.38;3.50;;;;;;;14.73;100.00;100426.69;5042231;28;20033;-75
2022/10/16 05:02:10;;;;;;;4.03;3.67;;;;;;;14.80;100.00;100428.31;5042110;28;20087;-76
2022/10/16 05:04:35;;;;;;;3.97;3.60;;;;;;;14.81;100.00;100421.19;5044927;28;20037;-75
2022/10/16 05:07:00;;;;;;;3.50;3.20;;;;;;;14.82;100.00;100423.78;5046902;28;20063;-76
2022/10/16 05:09:27;;;;;;;3.60;3.30;;;;;;;14.77;100.00;100438.97;5062758;28;20083;-75
2022/10/16 05:11:52;;;;;;;6.15;3.40;;;;;;;14.77;100.00;100448.75;5044927;28;20476;-76
2022/10/16 05:14:17;;;;;;;3.40;3.10;;;;;;;14.79;100.00;100438.94;5044997;28;20044;-76
2022/10/16 05:16:43;;;;;;;4.25;3.85;;;;;;;14.74;100.00;100435.53;5046795;28;20099;-75
2022/10/16 05:19:08;;;;;;;3.70;3.40;;;;;;;14.64;100.00;100437.53;5047802;28;20380;-76
2022/10/16 05:21:33;;;;;;;4.40;3.42;;;;;;;14.57;100.00;100441.28;5043710;28;20526;-76
2022/10/16 05:23:59;;;;;;;4.65;3.72;;;;;;;14.50;100.00;100448.47;5046313;28;20021;-75
2022/10/16 05:26:24;;;;;;;6.28;3.97;;;;;;;14.54;100.00;100455.50;5043924;28;20029;-76
2022/10/16 05:28:49;;;;;;;3.80;3.50;;;;;;;14.61;100.00;100453.56;5045223;28;20400;-76
2022/10/16 05:31:15;;;;;;;4.95;3.63;;;;;;;14.75;100.00;100464.72;5045429;28;20391;-76
2022/10/16 05:33:40;;;;;;;4.15;3.75;;;;;;;14.82;100.00;100458.34;5047123;28;20127;-76
2022/10/16 05:36:08;;;;;;;5.82;4.00;;;;;;;14.93;100.00;100451.88;5046164;28;20045;-76
2022/10/16 05:38:35;;;;;;;5.43;3.75;;;;;;;14.99;100.00;100451.75;5043774;28;20036;-76
2022/10/16 05:41:01;;;;;;;5.20;3.72;;;;;;;15.02;100.00;100449.00;5045361;28;20025;-76
2022/10/16 05:43:27;;;;;;;4.35;3.90;;;;;;;15.03;100.00;100445.44;5044576;28;20041;-76
2022/10/16 05:45:57;;;;;;;6.00;4.05;;;;;;;15.03;100.00;100456.91;5043472;28;20403;-76
2022/10/16 05:48:23;;;;;;;3.95;3.45;;;;;;;14.97;100.00;100461.53;5046409;28;20079;-76
2022/10/16 05:50:48;;;;;;;5.68;3.88;;;;;;;14.88;100.00;100479.47;5043256;28;20037;-76
2022/10/16 05:53:13;;;;;;;3.95;3.63;;;;;;;14.81;100.00;100483.16;5045193;28;20028;-76
2022/10/16 05:55:39;;;;;;;5.68;3.70;;;;;;;14.83;100.00;100480.50;5042314;28;20032;-76
2022/10/16 05:58:04;;;;;;;5.10;3.88;;;;;;;14.77;100.00;100483.28;5044863;28;20067;-76
2022/10/16 06:00:29;;;;;;;7.03;4.28;;;;;;;14.74;100.00;100481.56;5043221;28;20416;-76
2022/10/16 06:02:54;;;;;;;4.32;3.60;;;;;;;14.72;100.00;100486.03;5045920;28;20626;-76
2022/10/16 06:05:20;;;;;;;4.85;4.35;;;;;;;14.66;100.00;100480.88;5042316;28;20621;-76
2022/10/16 06:07:45;;;;;;;4.85;4.35;;;;;;;14.63;100.00;100483.63;5045434;28;20045;-76
2022/10/16 06:10:10;;;;;;;4.88;4.38;;;;;;;14.65;100.00;100484.47;5043263;28;20042;-76
2022/10/16 06:12:36;;;;;;;4.95;4.07;;;;;;;14.58;100.00;100485.50;5043961;28;20040;-76
2022/10/16 06:15:01;;;;;;;5.47;4.22;;;;;;;14.54;100.00;100500.66;5044354;28;20406;-75
2022/10/16 06:17:26;;;;;;;5.05;4.32;;;;;;;14.51;100.00;100499.78;5041499;28;20496;-76
2022/10/16 06:19:52;;;;;;;4.70;4.13;;;;;;;14.60;100.00;100497.84;5045709;28;20028;-75
2022/10/16 06:22:17;;;;;;;5.32;4.10;;;;;;;14.56;100.00;100498.81;5048849;28;20037;-76
2022/10/16 06:24:42;;;;;;;4.63;4.22;;;;;;;14.58;100.00;100504.09;5042759;28;20048;-76
2022/10/16 06:27:08;;;;;;;4.30;3.90;;;;;;;14.63;100.00;100502.19;5043944;28;20041;-76
2022/10/16 06:29:33;;;;;;;7.50;4.63;;;;;;;14.66;100.00;100510.09;5044021;28;20038;-76
2022/10/16 06:31:59;;;;;;;5.13;4.63;;;;;;;14.71;100.00;100512.66;5046112;28;20040;-76
2022/10/16 06:34:24;;;;;;;5.07;4.45;;;;;;;14.78;100.00;100504.50;5042150;28;20049;-75
2022/10/16 06:36:49;;;;;;;6.75;4.28;;;;;;;14.84;100.00;100514.09;5044912;28;20132;-76
2022/10/16 06:39:15;;;;;;;6.03;4.57;;;;;;;14.90;100.00;100508.63;5042222;28;20399;-76
2022/10/16 06:41:40;;;;;;;4.45;4.05;;;;;;;14.98;100.00;100517.28;5044356;28;20403;-76
2022/10/16 06:44:14;;;;;;;5.25;4.32;;;;;;;15.04;100.00;100517.16;5056752;28;20517;-76
2022/10/16 06:46:40;;;;;;;4.75;4.35;;;;;;;15.13;100.00;100521.38;5044852;28;20037;-76
2022/10/16 06:49:05;;;;;;;5.18;4.68;;;;;;;15.25;100.00;100525.50;5041908;28;20048;-76
2022/10/16 06:51:31;;;;;;;4.97;4.40;;;;;;;15.47;100.00;100537.31;5044178;28;20080;-76
2022/10/16 06:53:57;;;;;;;4.65;4.25;;;;;;;15.56;100.00;100530.88;5042878;28;20557;-75
2022/10/16 06:56:24;;;;;;;4.78;4.38;;;;;;;15.73;100.00;100528.69;5043126;28;20041;-76
2022/10/16 06:58:50;;;;;;;4.28;3.70;;;;;;;15.93;100.00;100528.13;5043374;28;20076;-76
2022/10/16 07:01:18;;;;;;;4.78;4.38;;;;;;;16.12;100.00;100530.28;5045634;28;20033;-76
2022/10/16 07:03:45;;;;;;;4.07;3.78;;;;;;;16.31;100.00;100530.59;5045383;28;20041;-76
2022/10/16 07:06:13;;;;;;;4.18;3.78;;;;;;;16.38;100.00;100533.03;5043153;28;20051;-76
2022/10/16 07:08:41;;;;;;;4.13;3.72;;;;;;;16.57;100.00;100543.13;5044103;28;20369;-76
2022/10/16 07:11:09;;;;;;;4.22;3.83;;;;;;;16.75;100.00;100544.34;5045028;28;20567;-76
2022/10/16 07:13:36;;;;;;;4.80;4.40;;;;;;;16.89;99.92;100542.13;5045300;28;20052;-76
2022/10/16 07:16:10;;;;;;;4.30;3.90;;;;;;;16.98;99.95;100549.84;5043338;28;20487;-76
2022/10/16 07:18:36;;;;;;;4.13;3.83;;;;;;;17.05;99.17;100546.03;5044404;28;20372;-76
2022/10/16 07:21:13;;;;;;;4.13;3.72;;;;;;;17.14;98.17;100549.38;5040958;28;20041;-76
2022/10/16 07:23:38;;;;;;;5.60;3.53;;;;;;;17.20;98.30;100555.34;5041634;28;20033;-76
2022/10/16 07:26:05;;;;;;;5.07;3.33;;;;;;;17.30;97.96;100556.78;5043202;28;20127;-76
2022/10/16 07:28:31;;;;;;;4.90;3.45;;;;;;;17.40;97.07;100564.50;5040407;28;20048;-76
2022/10/16 07:31:00;;;;;;;3.53;3.22;;;;;;;17.47;96.00;100558.00;5044397;28;20045;-76
2022/10/16 07:33:25;;;;;;;3.65;3.35;;;;;;;17.50;95.63;100561.47;5044689;28;20033;-75
2022/10/16 07:35:52;;;;;;;4.63;3.60;;;;;;;17.60;95.52;100567.34;5042635;28;20055;-76
2022/10/16 07:38:18;;;;;;;4.13;3.72;;;;;;;17.68;94.41;100572.41;5042194;28;20084;-75
2022/10/16 07:40:44;;;;;;;3.70;3.40;;;;;;;17.64;94.35;100565.44;5044282;28;20135;-76
2022/10/16 07:43:09;;;;;;;4.10;3.80;;;;;;;17.59;94.15;100568.25;5041135;28;20048;-77
2022/10/16 07:45:34;;;;;;;4.35;3.25;;;;;;;17.61;94.56;100578.91;5042298;28;20033;-76
2022/10/16 07:48:00;;;;;;;4.55;3.40;;;;;;;17.60;94.18;100571.81;5041773;28;20094;-76
2022/10/16 07:50:25;;;;;;;3.60;3.30;;;;;;;17.61;94.27;100568.22;5041403;28;20120;-76
2022/10/16 07:52:51;;;;;;;5.35;3.55;;;;;;;17.64;93.73;100568.97;5038964;28;20453;-76
2022/10/16 07:55:17;;;;;;;4.22;3.85;;;;;;;17.71;93.07;100564.28;5044086;28;20048;-76
2022/10/16 07:57:42;;;;;;;3.78;3.47;;;;;;;17.68;92.60;100572.41;5040985;28;20052;-76
2022/10/16 08:00:13;;;;;;;4.03;3.72;;;;;;;17.80;93.21;100576.50;5044433;28;20037;-77
2022/10/16 08:02:39;;;;;;;4.53;3.50;;;;;;;17.84;92.21;100576.34;5043962;28;20045;-77
2022/10/16 08:05:05;;;;;;;3.65;3.35;;;;;;;17.87;91.79;100572.69;5043199;28;20041;-77
2022/10/16 08:07:30;;;;;;;3.63;3.33;;;;;;;18.00;90.99;100575.75;5039831;28;20134;-77
2022/10/16 08:09:58;;;;;;;3.97;3.67;;;;;;;18.09;90.31;100564.75;5044496;28;20049;-77
2022/10/16 08:12:23;;;;;;;3.60;3.30;;;;;;;18.18;90.11;100569.75;5041044;28;20029;-76
2022/10/16 08:14:48;;;;;;;3.90;3.60;;;;;;;18.34;89.81;100575.41;5042053;28;20033;-76
2022/10/16 08:17:15;;;;;;;4.55;4.25;;;;;;;18.37;88.66;100577.97;5054127;28;20441;-77
2022/10/16 08:19:44;;;;;;;6.90;3.38;;;;;;;18.33;89.02;100574.53;5043543;28;20032;-77
2022/10/16 08:22:09;;;;;;;3.75;3.45;;;;;;;18.36;89.09;100573.53;5040976;28;20557;-76
2022/10/16 08:24:35;;;;;;;3.80;3.40;;;;;;;18.39;89.13;100560.06;5044251;28;20064;-77
2022/10/16 08:27:01;;;;;;;4.45;4.15;;;;;;;18.47;89.39;100554.41;5041258;28;20107;-75
2022/10/16 08:29:26;;;;;;;4.43;4.03;;;;;;;18.61;89.97;100590.38;5046541;28;20037;-77
2022/10/16 08:31:51;;;;;;;4.20;3.58;;;;;;;18.79;89.41;100591.50;5043155;28;20049;-76
2022/10/16 08:34:17;;;;;;;3.55;3.25;;;;;;;18.85;89.27;100601.09;5040078;28;20095;-75
2022/10/16 08:36:42;;;;;;;3.67;3.38;;;;;;;18.89;89.21;100625.91;5044109;28;20044;-77
2022/10/16 08:39:08;;;;;;;3.92;3.63;;;;;;;18.91;90.03;100624.91;5042505;28;20048;-76
2022/10/16 08:42:07;;;;;;;3.28;2.97;;;;;;;19.04;89.47;100634.19;5047637;28;20025;-76
2022/10/16 08:44:59;;;;;;;3.38;3.10;;;;;;;19.14;89.23;100634.69;5046708;28;20491;-76
2022/10/16 08:47:56;;;;;;;4.38;3.00;;;;;;;19.16;87.95;100622.16;5046553;28;20063;-77
2022/10/16 08:50:30;;;;;;;3.90;3.58;;;;;;;19.27;87.34;100630.59;5047637;28;20056;-76
2022/10/16 08:52:56;;;;;;;3.35;3.05;;;;;;;19.14;88.98;100626.69;5045213;28;20476;-77
2022/10/16 08:55:38;;;;;;;3.28;2.97;;;;;;;19.14;87.84;100633.84;5045871;28;20082;-76
2022/10/16 08:58:14;;;;;;;3.08;2.88;;;;;;;19.14;87.55;100634.69;5045159;28;20048;-76
2022/10/16 09:00:42;;;;;;;5.25;3.53;;;;;;;19.17;86.78;100626.53;5050186;28;20024;-76
2022/10/16 09:03:33;;;;;;;4.25;3.85;;;;;;;19.39;86.47;100625.69;5047606;28;20021;-77
2022/10/16 09:06:21;;;;;;;4.38;3.97;;;;;;;19.54;83.76;100632.19;5024964;28;20049;-77
2022/10/16 09:09:27;;;;;;;4.38;4.07;;;;;;;19.83;82.17;100650.63;5044502;28;20488;-76
2022/10/16 09:12:01;;;;;;;6.00;3.97;;;;;;;20.00;81.70;100647.22;5007537;28;20087;-75
2022/10/16 09:14:42;;;;;;;4.30;3.95;;;;;;;20.16;81.21;100643.88;5046308;28;20036;-76
2022/10/16 09:17:51;;;;;;;4.20;3.90;;;;;;;20.30;79.30;100646.81;5047934;28;20071;-77
2022/10/16 09:20:32;;;;;;;3.45;3.17;;;;;;;20.10;77.44;100632.50;5046410;28;20041;-76
2022/10/16 09:23:03;;;;;;;3.45;3.15;;;;;;;20.17;80.16;100637.56;5048156;28;20102;-76
2022/10/16 09:25:29;;;;;;;4.45;3.83;;;;;;;20.28;80.42;100641.53;5045174;28;20044;-76
2022/10/16 09:27:55;;;;;;;4.43;4.13;;;;;;;20.40;78.95;100645.44;5046636;28;20395;-76
2022/10/16 09:30:22;;;;;;;4.13;3.83;;;;;;;20.45;77.92;100648.78;5044057;28;20033;-76
2022/10/16 09:32:51;;;;;;;3.97;3.67;;;;;;;20.44;77.98;100649.75;5044311;28;20095;-76
2022/10/16 09:35:21;;;;;;;3.72;3.42;;;;;;;20.54;78.94;100658.25;5044111;28;20036;-76
2022/10/16 09:37:49;;;;;;;3.38;3.13;;;;;;;20.63;78.15;100662.34;5046351;28;20039;-76
2022/10/16 09:40:45;;;;;;;4.03;3.72;;;;;;;20.60;76.30;100671.41;5043892;28;20025;-76
2022/10/16 09:43:32;;;;;;;4.25;3.95;;;;;;;20.64;75.11;100661.41;5030619;28;20052;-76
2022/10/16 09:46:05;;;;;;;4.57;4.28;;;;;;;20.82;75.24;100665.91;5043575;28;20044;-76
2022/10/16 09:48:35;;;;;;;3.78;3.47;;;;;;;20.81;75.52;100666.88;5045214;28;20036;-75
2022/10/16 09:51:03;;;;;;;3.88;3.22;;;;;;;20.78;76.14;100669.69;5045711;28;20044;-76
2022/10/16 09:53:40;;;;;;;3.80;3.50;;;;;;;20.75;75.43;100678.75;5043469;28;20542;-76
2022/10/16 09:56:06;;;;;;;3.40;3.10;;;;;;;20.82;75.77;100673.09;5044223;28;20048;-76
2022/10/16 09:58:33;;;;;;;3.97;3.67;;;;;;;20.86;75.34;100670.19;5046081;28;20040;-75
2022/10/16 10:00:59;;;;;;;3.92;3.63;;;;;;;20.74;75.71;100668.94;5043290;28;20044;-76
2022/10/16 10:03:38;;;;;;;3.70;3.40;;;;;;;20.58;75.88;100659.88;5049268;28;20033;-76
2022/10/16 10:06:20;;;;;;;4.53;3.20;;;;;;;20.62;77.35;100668.63;5046257;28;20518;-76
2022/10/16 10:08:59;;;;;;;4.53;4.22;;;;;;;20.66;76.70;100670.25;5045310;28;20041;-76
2022/10/16 10:11:38;;;;;;;4.25;3.95;;;;;;;20.92;75.42;100664.53;5043912;28;20111;-76
2022/10/16 10:14:05;;;;;;;3.58;3.28;;;;;;;20.94;75.12;100673.38;5043667;28;20037;-76
2022/10/16 10:16:31;;;;;;;4.45;3.65;;;;;;;20.90;75.01;100677.16;5043262;28;20030;-76
2022/10/16 10:19:00;;;;;;;5.15;4.75;;;;;;;20.93;75.14;100682.41;5046198;28;20528;-77
2022/10/16 10:21:25;;;;;;;4.53;4.22;;;;;;;21.16;74.72;100672.38;5044599;28;20033;-76
2022/10/16 10:23:57;;;;;;;4.40;4.00;;;;;;;21.23;74.26;100673.81;5047080;28;20036;-76
2022/10/16 10:26:27;;;;;;;5.85;5.45;;;;;;;21.23;73.36;100685.41;5041576;28;20431;-76
2022/10/16 10:29:29;;;;;;;5.35;4.97;;;;;;;21.44;72.91;100672.81;5043041;28;20041;-76
2022/10/16 10:32:16;;;;;;;4.35;4.05;;;;;;;21.44;73.41;100677.31;5045736;28;20036;-76
2022/10/16 10:35:01;;;;;;;4.32;4.03;;;;;;;21.20;73.28;100693.63;5045315;28;20036;-76
2022/10/16 10:37:51;;;;;;;6.82;6.10;;;;;;;20.95;73.59;100691.22;5043434;28;20068;-76
2022/10/16 10:40:41;;;;;;;11.63;4.35;;;;;;;20.91;73.96;100689.63;5044615;28;20419;-76
2022/10/16 10:43:21;;;;;;;4.68;4.35;;;;;;;20.98;73.99;100693.75;5044688;28;20483;-76
2022/10/16 10:45:49;;;;;;;5.25;4.88;;;;;;;21.29;73.98;100692.31;5043314;28;20487;-76
2022/10/16 10:48:32;;;;;;;6.80;6.30;;;;;;;21.58;70.85;100698.97;5044264;28;20045;-76
2022/10/16 10:51:04;;;;;;;5.65;5.25;;;;;;;21.77;70.85;100687.31;5042589;28;20025;-76
2022/10/16 10:53:57;;;;;;;5.55;5.07;;;;;;;21.91;71.14;100678.56;5044001;28;20041;-76
2022/10/16 10:56:40;;;;;;;5.65;4.85;;;;;;;22.02;70.12;100674.38;5045742;28;20040;-77
2022/10/16 10:59:14;;;;;;;6.28;5.45;;;;;;;22.07;69.07;100682.22;5044991;28;20128;-76
2022/10/16 11:01:56;;;;;;;5.68;5.18;;;;;;;22.04;69.23;100683.25;5041777;28;20096;-75
2022/10/16 11:04:52;;;;;;;5.95;5.43;;;;;;;22.00;69.78;100683.47;5045867;28;20052;-76
2022/10/16 11:07:23;;;;;;;7.72;7.18;;;;;;;21.82;68.29;100694.22;5045533;28;20036;-76
2022/10/16 11:09:53;;;;;;;7.97;7.53;;;;;;;21.79;67.84;100693.47;5044508;28;20431;-76
2022/10/16 11:12:25;;;;;;;6.53;6.07;;;;;;;22.04;68.07;100693.13;5045640;28;20033;-75
2022/10/16 11:15:09;;;;;;;;;;;;;;;22.09;68.38;100689.25;5046701;28;20095;-77
2022/10/16 11:18:05;;;;;;;5.60;5.20;;;;;;;22.14;68.29;100694.38;5046732;28;19919;-75
2022/10/16 11:20:34;;;;;;;4.85;4.45;;;;;;;22.09;67.84;100691.94;5045979;28;20131;-77
2022/10/16 11:23:06;;;;;;;8.00;7.38;;;;;;;22.00;67.25;100686.16;5044213;28;20040;-75
2022/10/16 11:25:33;;;;;;;5.85;5.45;;;;;;;21.85;67.79;100686.00;5042860;28;20052;-77
2022/10/16 11:28:15;;;;;;;5.00;4.60;;;;;;;21.65;68.34;100696.88;5045581;28;20040;-77
2022/10/16 11:30:46;;;;;;;4.88;4.50;;;;;;;21.58;68.60;100690.06;5044846;28;20037;-76
2022/10/16 11:33:17;;;;;;;6.32;5.72;;;;;;;21.55;68.60;100695.56;5045388;28;20040;-76